Time;durP1;ratioP1;P1;durP2;ratioP2;P2;SDS_P1;SDS_P2;PMS_P1;PMS_P2;Temp;Humidity;BMP_temperature;BMP_pressure;BME280_temperature;BME280_humidity;BME280_pressure;Samples;Min_cycle;Max_cycle;Signal;HPM_P1;HPM_P2
2022/06/14 00:01:05;;;;;;;;;3.00;3.00;;;;;20.64;45.21;99395.56;5009095;28;45518;-59
2022/06/14 00:03:32;;;;;;;;;3.00;1.75;;;;;20.58;45.15;99397.91;5010094;28;45453;-59
2022/06/14 00:06:00;;;;;;;;;2.50;2.00;;;;;20.52;45.06;99399.22;5007658;28;45583;-59
2022/06/14 00:08:28;;;;;;;;;3.40;2.00;;;;;20.46;45.24;99392.47;4991611;28;45594;-59
2022/06/14 00:10:55;;;;;;;;;2.60;2.00;;;;;20.42;45.89;99395.53;5005850;28;45533;-58
2022/06/14 00:13:22;;;;;;;;;1.00;1.00;;;;;20.38;45.92;99400.25;5008239;28;45383;-59
2022/06/14 00:15:48;;;;;;;;;3.00;3.00;;;;;20.38;45.52;99394.91;4991478;28;45520;-59
2022/06/14 00:18:15;;;;;;;;;2.40;2.00;;;;;20.37;45.87;99392.34;5008957;28;45571;-59
2022/06/14 00:20:42;;;;;;;;;3.00;2.00;;;;;20.35;46.15;99395.09;5008995;28;45471;-59
2022/06/14 00:23:07;;;;;;;;;2.00;2.00;;;;;20.34;45.92;99397.91;5009279;28;45498;-59
2022/06/14 00:25:41;;;;;;;;;3.25;2.00;;;;;20.32;46.03;99400.69;5009167;28;46181;-58
2022/06/14 00:28:10;;;;;;;;;2.00;2.00;;;;;20.29;45.89;99395.56;5009158;28;45656;-59
2022/06/14 00:30:38;;;;;;;;;2.00;2.00;;;;;20.28;46.24;99399.19;5009512;28;45541;-59
2022/06/14 00:33:04;;;;;;;;;2.00;2.00;;;;;20.26;46.47;99395.81;5009073;28;45450;-59
2022/06/14 00:35:29;;;;;;;;;2.00;2.00;;;;;20.24;46.55;99405.78;5008758;28;45631;-59
2022/06/14 00:37:55;;;;;;;;;2.50;2.50;;;;;20.22;46.57;99397.00;5008828;28;45530;-59
2022/06/14 00:40:24;;;;;;;;;3.25;3.25;;;;;20.23;46.74;99401.41;5008862;28;45886;-59
2022/06/14 00:42:50;;;;;;;;;2.00;2.00;;;;;20.22;46.55;99402.34;5008313;28;45509;-59
2022/06/14 00:45:18;;;;;;;;;2.00;2.00;;;;;20.20;47.03;99404.28;5007859;28;45549;-58
2022/06/14 00:48:18;;;;;;;;;5.20;3.80;;;;;20.14;46.83;99405.59;5008499;28;45507;-59
2022/06/14 00:50:46;;;;;;;;;3.00;3.00;;;;;20.13;47.38;99403.03;4994340;28;45374;-59
2022/06/14 00:53:23;;;;;;;;;3.50;3.50;;;;;20.10;47.93;99395.25;5008680;28;45473;-59
2022/06/14 00:56:04;;;;;;;;;2.75;2.75;;;;;20.09;47.50;99393.53;5008335;28;45506;-59
2022/06/14 00:58:38;;;;;;;;;2.00;2.00;;;;;20.09;48.12;99393.53;5008083;28;45533;-59
2022/06/14 01:01:21;;;;;;;;;2.00;2.00;;;;;20.06;47.82;99394.63;5007671;28;45594;-58
2022/06/14 01:03:56;;;;;;;;;3.00;3.00;;;;;20.04;47.91;99395.69;5007880;28;45663;-59
2022/06/14 01:06:40;;;;;;;;;3.00;3.00;;;;;20.03;47.98;99389.50;5007813;28;45667;-59
2022/06/14 01:09:10;;;;;;;;;2.60;2.00;;;;;20.05;47.27;99394.75;5005537;28;45564;-59
2022/06/14 01:11:43;;;;;;;;;3.00;3.00;;;;;20.04;47.77;99396.56;5008434;28;45599;-59
2022/06/14 01:14:12;;;;;;;;;4.25;3.00;;;;;20.06;47.72;99393.78;5007308;28;45520;-59
2022/06/14 01:16:38;;;;;;;;;2.25;2.25;;;;;20.06;47.63;99388.41;5008499;28;45554;-59
2022/06/14 01:19:22;;;;;;;;;3.00;2.25;;;;;20.03;48.44;99386.81;5008173;28;45398;-59
2022/06/14 01:21:59;;;;;;;;;4.75;3.00;;;;;19.99;48.19;99390.69;5008803;28;45363;-59
2022/06/14 01:24:25;;;;;;;;;3.00;3.00;;;;;19.97;47.34;99381.91;5008857;28;45620;-59
2022/06/14 01:26:50;;;;;;;;;3.25;3.25;;;;;19.98;47.05;99388.97;5008568;28;45718;-58
2022/06/14 01:29:19;;;;;;;;;4.00;2.00;;;;;20.01;47.40;99379.88;5009964;28;45649;-59
2022/06/14 01:31:47;;;;;;;;;2.25;2.25;;;;;20.03;47.47;99383.28;5012852;28;45636;-59
2022/06/14 01:34:15;;;;;;;;;4.00;4.00;;;;;20.06;47.82;99385.75;5011456;28;45397;-59
2022/06/14 01:36:41;;;;;;;;;3.80;2.60;;;;;20.09;47.92;99382.84;5012002;28;46205;-58
2022/06/14 01:39:11;;;;;;;;;3.00;3.00;;;;;20.10;48.17;99384.56;5011064;28;45499;-59
2022/06/14 01:42:00;;;;;;;;;2.50;2.50;;;;;20.06;48.99;99388.41;5011218;28;45641;-59
2022/06/14 01:44:31;;;;;;;;;2.25;2.25;;;;;20.02;48.33;99384.25;5011073;28;45522;-59
2022/06/14 01:47:05;;;;;;;;;3.25;3.00;;;;;19.99;48.27;99382.66;5012173;28;46263;-59
2022/06/14 01:52:51;;;;;;;;;4.00;3.50;;;;;19.90;48.31;99386.03;5011801;28;45461;-59
2022/06/14 01:55:38;;;;;;;;;3.50;3.00;;;;;19.87;48.12;99386.25;5010699;28;45493;-59
2022/06/14 01:58:19;;;;;;;;;3.00;2.00;;;;;19.84;48.47;99387.31;5009070;28;46273;-59
2022/06/14 02:01:20;;;;;;;;;3.00;3.00;;;;;19.79;48.80;99385.94;4980935;28;46010;-59
2022/06/14 02:07:15;;;;;;;;;3.00;2.50;;;;;19.61;49.45;99396.16;5010708;28;45398;-59
2022/06/14 02:09:58;;;;;;;;;4.60;4.00;;;;;19.53;49.50;99398.56;4929154;28;46493;-58
2022/06/14 02:12:50;;;;;;;;;4.00;2.40;;;;;19.45;50.04;99399.06;5004147;28;45537;-59
2022/06/14 02:15:30;;;;;;;;;3.60;3.00;;;;;19.39;50.65;99394.19;4969033;28;45415;-59
2022/06/14 02:18:05;;;;;;;;;4.00;4.00;;;;;19.36;50.25;99398.88;5011508;28;45622;-59
2022/06/14 02:20:39;;;;;;;;;2.25;2.25;;;;;19.32;50.66;99395.56;5010742;28;46366;-59
2022/06/14 02:23:08;;;;;;;;;3.40;3.20;;;;;19.29;50.58;99392.25;5011352;28;45494;-59
2022/06/14 02:25:46;;;;;;;;;3.00;3.00;;;;;19.27;50.71;99388.88;5011060;28;45521;-59
2022/06/14 02:28:18;;;;;;;;;3.00;3.00;;;;;19.26;51.00;99395.19;4992627;28;46265;-59
2022/06/14 02:31:12;;;;;;;;;3.00;3.00;;;;;19.24;50.72;99395.28;5009581;28;46390;-59
2022/06/14 02:33:44;;;;;;;;;3.00;3.00;;;;;19.25;50.87;99390.78;5010115;28;45395;-59
2022/06/14 02:36:21;;;;;;;;;4.25;4.00;;;;;19.28;50.96;99393.22;5010024;28;45545;-59
2022/06/14 02:38:55;;;;;;;;;2.00;2.00;;;;;19.34;51.03;99388.31;5010603;28;45795;-60
2022/06/14 02:41:41;;;;;;;;;3.75;3.00;;;;;19.39;51.26;99386.16;5010962;28;46651;-59
2022/06/14 02:44:19;;;;;;;;;4.40;4.40;;;;;19.44;51.55;99391.16;5009240;28;45583;-59
2022/06/14 02:46:48;;;;;;;;;3.50;3.50;;;;;19.45;50.97;99396.41;5010430;28;45953;-59
2022/06/14 02:49:49;;;;;;;;;4.00;3.25;;;;;19.48;50.95;99392.66;5010170;28;45517;-59
2022/06/14 02:52:39;;;;;;;;;3.50;3.00;;;;;19.50;50.85;99393.44;5001959;28;46937;-59
2022/06/14 02:55:14;;;;;;;;;6.80;4.60;;;;;19.51;50.97;99395.16;5010759;28;45547;-59
2022/06/14 02:57:56;;;;;;;;;4.00;3.50;;;;;19.51;50.92;99396.00;5010493;28;45504;-59
2022/06/14 03:00:28;;;;;;;;;4.50;4.50;;;;;19.50;50.98;99394.28;5011094;28;45344;-58
2022/06/14 03:02:59;;;;;;;;;4.75;4.25;;;;;19.51;51.00;99392.47;5010583;28;45532;-59
2022/06/14 03:05:33;;;;;;;;;3.80;3.80;;;;;19.52;50.94;99388.84;5010753;28;45554;-58
2022/06/14 03:08:33;;;;;;;;;3.75;3.75;;;;;19.52;51.26;99381.66;5010991;28;45377;-59
2022/06/14 03:11:07;;;;;;;;;4.00;3.00;;;;;19.57;51.60;99384.00;5009067;28;45724;-59
2022/06/14 03:13:41;;;;;;;;;5.00;5.00;;;;;19.59;51.26;99392.78;5008304;28;46724;-59
2022/06/14 03:16:26;;;;;;;;;4.20;4.20;;;;;19.59;51.08;99386.56;5009371;28;45553;-59
2022/06/14 03:18:59;;;;;;;;;4.00;4.00;;;;;19.58;51.21;99396.41;5010418;28;45938;-59
2022/06/14 03:22:03;;;;;;;;;5.00;5.00;;;;;19.57;51.87;99391.19;5009763;28;45498;-59
2022/06/14 03:24:55;;;;;;;;;4.40;3.80;;;;;19.47;52.13;99391.78;5003743;28;46206;-59
2022/06/14 03:27:26;;;;;;;;;4.00;4.00;;;;;19.40;52.26;99387.88;4999567;28;45482;-59
2022/06/14 03:30:00;;;;;;;;;3.25;3.25;;;;;19.34;52.14;99393.66;5010307;28;45470;-59
2022/06/14 03:33:06;;;;;;;;;5.00;4.00;;;;;19.26;52.53;99382.66;5007305;28;45687;-58
2022/06/14 03:35:41;;;;;;;;;3.75;3.75;;;;;19.24;52.73;99389.94;5008751;28;46213;-59
2022/06/14 03:38:12;;;;;;;;;4.00;4.00;;;;;19.23;52.64;99392.72;5009695;28;45542;-58
2022/06/14 03:40:39;;;;;;;;;3.75;3.25;;;;;19.23;52.90;99392.72;5009745;28;45482;-59
2022/06/14 03:43:05;;;;;;;;;5.00;5.00;;;;;19.22;52.76;99385.66;5009389;28;45459;-59
2022/06/14 03:45:47;;;;;;;;;5.00;4.25;;;;;19.24;52.77;99391.75;5008336;28;46328;-59
2022/06/14 03:48:13;;;;;;;;;6.40;4.20;;;;;19.23;52.72;99385.56;5009623;28;45484;-59
2022/06/14 03:50:53;;;;;;;;;4.00;4.00;;;;;19.22;52.98;99391.88;5008680;28;45544;-58
2022/06/14 03:53:44;;;;;;;;;5.00;5.00;;;;;19.26;52.99;99392.50;5007372;28;45466;-59
2022/06/14 03:56:43;;;;;;;;;5.25;5.00;;;;;19.32;52.77;99394.72;5007546;28;46743;-59
2022/06/14 03:59:26;;;;;;;;;6.40;6.40;;;;;19.32;52.77;99400.91;5007362;28;45562;-58
2022/06/14 04:02:02;;;;;;;;;5.00;5.00;;;;;19.31;52.25;99401.03;5009563;28;45581;-58
2022/06/14 04:04:43;;;;;;;;;6.25;4.50;;;;;19.28;52.63;99404.78;5009358;28;45696;-59
2022/06/14 04:07:22;;;;;;;;;3.75;3.75;;;;;19.25;52.99;99404.16;5009065;28;45540;-58
2022/06/14 04:10:18;;;;;;;;;6.40;4.80;;;;;19.24;52.54;99416.66;5009136;28;45465;-58
2022/06/14 04:13:01;;;;;;;;;5.50;5.00;;;;;19.22;52.59;99415.06;5006989;28;45599;-59
2022/06/14 04:15:29;;;;;;;;;7.25;5.00;;;;;19.20;53.11;99417.00;5009119;28;45465;-59
2022/06/14 04:18:34;;;;;;;;;5.00;5.00;;;;;19.21;52.78;99416.88;5009259;28;45697;-59
2022/06/14 04:21:00;;;;;;;;;5.40;5.40;;;;;19.23;53.34;99412.28;5007425;28;45551;-59
2022/06/14 04:23:36;;;;;;;;;7.75;5.75;;;;;19.27;53.34;99418.28;5009013;28;45450;-59
2022/06/14 04:26:28;;;;;;;;;5.00;5.00;;;;;19.29;53.00;99413.66;5005157;28;45368;-59
2022/06/14 04:29:20;;;;;;;;;6.50;5.25;;;;;19.32;52.97;99419.63;5008744;28;45541;-59
2022/06/14 04:32:02;;;;;;;;;5.00;4.40;;;;;19.36;53.08;99421.13;5003906;28;45493;-59
2022/06/14 04:34:47;;;;;;;;;6.25;5.25;;;;;19.39;53.24;99412.91;5007769;28;45482;-59
2022/06/14 04:37:23;;;;;;;;;4.00;4.00;;;;;19.39;53.47;99418.25;5007864;28;45447;-59
2022/06/14 04:40:01;;;;;;;;;9.00;7.50;;;;;19.42;53.23;99422.53;5006352;28;48581;-59
2022/06/14 04:42:42;;;;;;;;;6.50;6.50;;;;;19.44;53.09;99431.25;5007952;28;45491;-58
2022/06/14 04:45:32;;;;;;;;;7.75;7.00;;;;;19.47;52.70;99431.06;5008236;28;45485;-59
2022/06/14 04:48:00;;;;;;;;;6.50;6.50;;;;;19.48;52.74;99436.28;5005832;28;45565;-58
2022/06/14 04:50:36;;;;;;;;;6.25;6.25;;;;;19.49;53.52;99431.81;5008241;28;45483;-59
2022/06/14 04:53:13;;;;;;;;;7.40;6.20;;;;;19.52;53.14;99436.97;5007994;28;45431;-59
2022/06/14 04:55:51;;;;;;;;;5.00;4.25;;;;;19.57;53.18;99433.97;5008487;28;45491;-58
2022/06/14 04:58:32;;;;;;;;;7.75;7.00;;;;;19.59;53.33;99438.25;5007507;28;45430;-59
2022/06/14 05:01:07;;;;;;;;;7.00;7.00;;;;;19.62;53.13;99438.00;5007794;28;47087;-59
2022/06/14 05:03:44;;;;;;;;;7.40;6.00;;;;;19.65;53.29;99436.94;5006247;28;45600;-59
2022/06/14 05:06:24;;;;;;;;;8.00;8.00;;;;;19.66;52.79;99434.16;5009967;28;45458;-59
2022/06/14 05:08:56;;;;;;;;;5.75;5.25;;;;;19.70;53.16;99438.31;5008504;28;45498;-59
2022/06/14 05:11:45;;;;;;;;;5.50;5.50;;;;;19.72;52.76;99432.88;5009366;28;45528;-59
2022/06/14 05:14:16;;;;;;;;;7.60;7.40;;;;;19.72;52.69;99433.72;5010193;28;45572;-59
2022/06/14 05:16:47;;;;;;;;;5.50;5.00;;;;;19.74;52.66;99433.59;4999480;28;46273;-58
2022/06/14 05:19:16;;;;;;;;;6.25;6.00;;;;;19.76;52.81;99431.69;5010869;28;45399;-59
2022/06/14 05:21:59;;;;;;;;;14.75;14.75;;;;;19.77;53.06;99428.88;5010628;28;45601;-59
2022/06/14 05:24:26;;;;;;;;;12.75;12.75;;;;;19.85;53.37;99423.81;5011080;28;45422;-59
2022/06/14 05:27:22;;;;;;;;;8.00;6.00;;;;;19.97;52.81;99422.06;5011044;28;45410;-59
2022/06/14 05:30:23;;;;;;;;;7.00;6.75;;;;;20.08;52.79;99426.63;5010280;28;45541;-59
2022/06/14 05:32:56;;;;;;;;;7.00;5.75;;;;;20.11;52.29;99434.41;4993018;28;46226;-59
2022/06/14 05:35:27;;;;;;;;;8.80;8.00;;;;;20.11;52.51;99432.59;5010730;28;45569;-58
2022/06/14 05:37:56;;;;;;;;;7.50;6.00;;;;;20.13;52.36;99435.16;5010703;28;45715;-58
2022/06/14 05:40:30;;;;;;;;;7.00;6.50;;;;;20.15;52.45;99430.53;5009754;28;45544;-58
2022/06/14 05:43:09;;;;;;;;;6.50;6.00;;;;;20.17;52.31;99432.16;5005400;28;46427;-59
2022/06/14 05:45:42;;;;;;;;;9.80;7.40;;;;;20.23;52.29;99438.03;4989620;28;45402;-58
2022/06/14 05:48:11;;;;;;;;;9.00;5.50;;;;;20.24;52.53;99427.19;5009746;28;45433;-58
2022/06/14 05:50:46;;;;;;;;;9.25;8.75;;;;;20.28;52.51;99428.66;5009571;28;45892;-58
2022/06/14 05:53:18;;;;;;;;;8.25;7.50;;;;;20.32;52.53;99435.50;5009688;28;45489;-58
2022/06/14 05:56:06;;;;;;;;;8.20;7.00;;;;;20.39;52.58;99434.09;4990807;28;46141;-59
2022/06/14 05:58:31;;;;;;;;;9.00;9.00;;;;;20.43;52.29;99432.06;4990339;28;45542;-59
2022/06/14 06:01:07;;;;;;;;;10.75;9.00;;;;;20.47;52.13;99431.69;5009759;28;45683;-58
2022/06/14 06:03:45;;;;;;;;;9.00;9.00;;;;;20.48;51.64;99424.50;5009090;28;45826;-58
2022/06/14 06:06:18;;;;;;;;;7.80;7.80;;;;;20.49;52.32;99427.06;5008915;28;45514;-59
2022/06/14 06:09:15;;;;;;;;;7.75;7.00;;;;;20.53;52.21;99428.56;5009141;28;45529;-58
2022/06/14 06:11:51;;;;;;;;;7.25;7.00;;;;;20.55;51.94;99429.31;5004124;28;45662;-59
2022/06/14 06:14:30;;;;;;;;;9.75;7.75;;;;;20.58;52.11;99427.34;5007147;28;46556;-58
2022/06/14 06:17:07;;;;;;;;;7.00;6.80;;;;;20.59;52.19;99424.56;5010238;28;45526;-59
2022/06/14 06:19:42;;;;;;;;;6.75;6.75;;;;;20.62;52.10;99426.97;5008266;28;45421;-59
2022/06/14 06:22:36;;;;;;;;;7.00;7.00;;;;;20.67;51.78;99421.28;5009238;28;45554;-59
2022/06/14 06:25:05;;;;;;;;;8.00;7.75;;;;;20.70;51.83;99424.59;5007882;28;46576;-59
2022/06/14 06:27:47;;;;;;;;;8.00;7.20;;;;;20.75;52.08;99416.22;5009116;28;45704;-58
2022/06/14 06:30:22;;;;;;;;;7.00;4.75;;;;;20.78;51.78;99416.78;5008889;28;45602;-59
2022/06/14 06:32:48;;;;;;;;;7.00;6.25;;;;;20.82;51.41;99407.56;5008233;28;45485;-58
2022/06/14 06:35:14;;;;;;;;;8.00;7.25;;;;;20.88;51.33;99411.59;4990013;28;46262;-58
2022/06/14 06:37:47;;;;;;;;;7.00;7.00;;;;;20.92;51.24;99405.03;4976409;28;45573;-59
2022/06/14 06:40:22;;;;;;;;;8.25;5.75;;;;;20.98;50.81;99401.84;4989054;28;45619;-58
2022/06/14 06:42:59;;;;;;;;;8.50;6.50;;;;;21.04;50.74;99404.06;5013793;28;45430;-58
2022/06/14 06:45:29;;;;;;;;;7.00;6.00;;;;;21.09;50.21;99399.19;5014090;28;45839;-59
2022/06/14 06:48:03;;;;;;;;;6.40;5.40;;;;;21.13;50.05;99400.63;5005395;28;45453;-58
2022/06/14 06:50:52;;;;;;;;;7.50;7.00;;;;;21.20;50.10;99390.31;5013702;28;45464;-58
2022/06/14 06:53:19;;;;;;;;;11.25;9.75;;;;;21.27;50.21;99391.56;5014036;28;45486;-58
2022/06/14 06:55:50;;;;;;;;;9.50;9.50;;;;;21.34;49.52;99386.53;5014345;28;45468;-58
2022/06/14 06:58:27;;;;;;;;;8.40;7.40;;;;;21.39;49.28;99377.16;4996443;28;45447;-59
2022/06/14 07:00:56;;;;;;;;;7.75;6.50;;;;;21.47;49.45;99379.19;5014803;28;45520;-58
2022/06/14 07:03:43;;;;;;;;;8.25;6.50;;;;;21.54;49.07;99377.75;5014616;28;45515;-58
2022/06/14 07:06:34;;;;;;;;;7.00;7.00;;;;;21.61;48.82;99370.91;5014805;28;46332;-58
2022/06/14 07:09:11;;;;;;;;;6.00;6.00;;;;;21.68;49.25;99371.25;5013898;28;45491;-58
2022/06/14 07:11:44;;;;;;;;;6.50;6.50;;;;;21.75;48.85;99367.09;5014582;28;45389;-58
2022/06/14 07:14:25;;;;;;;;;7.00;7.00;;;;;21.84;48.79;99367.19;5014583;28;45366;-58
2022/06/14 07:17:02;;;;;;;;;6.00;6.00;;;;;21.95;48.66;99371.69;5014459;28;46667;-58
2022/06/14 07:19:44;;;;;;;;;7.80;7.00;;;;;22.02;49.10;99372.88;5006415;28;45459;-58
2022/06/14 07:22:16;;;;;;;;;5.25;4.00;;;;;22.10;48.69;99358.84;5014208;28;45371;-59
2022/06/14 07:25:00;;;;;;;;;6.00;6.00;;;;;22.18;48.50;99362.56;5005094;28;45557;-59
2022/06/14 07:27:33;;;;;;;;;9.50;7.50;;;;;22.27;48.34;99363.66;5013299;28;47208;-59
2022/06/14 07:30:31;;;;;;;;;5.00;4.60;;;;;22.32;47.50;99360.56;5013398;28;45491;-59
2022/06/14 07:32:59;;;;;;;;;6.75;6.00;;;;;22.40;47.07;99361.63;4999664;28;45361;-58
2022/06/14 07:35:58;;;;;;;;;6.75;6.75;;;;;22.48;46.70;99363.63;4997079;28;45494;-59
2022/06/14 07:38:49;;;;;;;;;5.50;5.00;;;;;22.56;46.79;99362.00;5014707;28;46170;-59
2022/06/14 07:41:37;;;;;;;;;7.60;5.20;;;;;22.66;46.45;99353.16;5014168;28;45411;-58
2022/06/14 07:44:22;;;;;;;;;5.00;5.00;;;;;22.73;46.00;99351.66;4995851;28;45435;-58
2022/06/14 07:46:58;;;;;;;;;6.50;6.50;;;;;22.81;45.89;99336.56;5014259;28;45426;-59
2022/06/14 07:49:52;;;;;;;;;7.00;6.00;;;;;22.90;46.17;99334.94;5014012;28;46306;-58
2022/06/14 07:52:17;;;;;;;;;7.40;5.80;;;;;22.96;45.59;99340.59;5014268;28;45500;-59
2022/06/14 07:54:47;;;;;;;;;6.00;5.25;;;;;23.04;46.00;99339.94;5014701;28;45521;-59
2022/06/14 07:57:13;;;;;;;;;4.25;4.25;;;;;23.09;45.84;99329.66;5014504;28;45527;-58
2022/06/14 07:59:43;;;;;;;;;7.50;7.50;;;;;23.17;45.90;99331.66;5013776;28;46449;-59
2022/06/14 08:02:21;;;;;;;;;6.00;6.00;;;;;23.26;45.84;99336.22;5014061;28;45422;-58
2022/06/14 08:04:46;;;;;;;;;8.25;7.00;;;;;23.32;46.03;99325.75;5014381;28;45434;-59
2022/06/14 08:07:15;;;;;;;;;11.00;9.25;;;;;23.40;46.05;99326.91;5014908;28;45417;-59
2022/06/14 08:10:02;;;;;;;;;8.00;8.00;;;;;23.49;46.03;99326.06;5013923;28;45657;-59
2022/06/14 08:12:53;;;;;;;;;8.80;8.00;;;;;23.58;46.34;99322.59;5014557;28;45441;-59
2022/06/14 08:15:23;;;;;;;;;6.75;6.75;;;;;23.63;46.29;99314.94;4991507;28;45677;-59
2022/06/14 08:17:57;;;;;;;;;7.50;7.50;;;;;23.69;45.92;99314.38;5013570;28;45431;-59
2022/06/14 08:20:30;;;;;;;;;5.75;5.75;;;;;23.74;45.56;99312.13;5013176;28;45496;-59
2022/06/14 08:23:00;;;;;;;;;6.00;6.00;;;;;23.80;45.55;99318.78;5013924;28;45346;-59
2022/06/14 08:25:34;;;;;;;;;9.00;7.00;;;;;23.87;44.71;99314.56;4996268;28;45521;-59
2022/06/14 08:28:09;;;;;;;;;8.75;6.75;;;;;23.93;44.55;99312.16;5014088;28;45415;-59
2022/06/14 08:30:43;;;;;;;;;10.75;9.00;;;;;24.00;45.01;99299.81;5014062;28;45426;-59
2022/06/14 08:33:35;;;;;;;;;8.40;7.40;;;;;24.10;44.41;99304.34;5014423;28;45509;-59
2022/06/14 08:36:17;;;;;;;;;6.50;6.50;;;;;24.17;44.88;99305.47;5013861;28;45346;-60
2022/06/14 08:38:52;;;;;;;;;9.00;7.00;;;;;24.24;44.34;99303.94;5019092;28;45323;-59
2022/06/14 08:41:30;;;;;;;;;7.00;6.00;;;;;24.30;44.11;99296.13;5002818;28;46636;-59
2022/06/14 08:44:03;;;;;;;;;7.20;6.00;;;;;24.35;43.82;99295.69;5020525;28;45416;-59
2022/06/14 08:46:41;;;;;;;;;6.50;5.00;;;;;24.41;43.34;99300.53;5012608;28;45349;-59
2022/06/14 08:49:42;;;;;;;;;6.50;6.00;;;;;24.48;42.96;99290.84;5020103;28;45410;-59
2022/06/14 08:52:44;;;;;;;;;7.25;7.00;;;;;24.58;42.38;99288.13;5020391;28;46597;-59
2022/06/14 08:55:55;;;;;;;;;10.60;9.00;;;;;24.66;42.48;99281.00;5019459;28;45433;-60
2022/06/14 08:58:35;;;;;;;;;7.25;7.00;;;;;24.77;42.03;99273.75;5004124;28;45492;-59
2022/06/14 09:01:26;;;;;;;;;9.25;8.00;;;;;24.84;41.87;99273.00;5020119;28;45415;-60
2022/06/14 09:04:13;;;;;;;;;7.25;6.00;;;;;24.93;41.85;99280.22;5019881;28;45597;-59
2022/06/14 09:07:03;;;;;;;;;8.60;8.00;;;;;25.02;41.54;99273.94;5002134;28;45459;-58
2022/06/14 09:09:59;;;;;;;;;5.00;5.00;;;;;25.11;41.52;99266.81;5020273;28;45536;-59
2022/06/14 09:12:38;;;;;;;;;10.00;8.00;;;;;25.19;41.61;99269.59;5019367;28;45590;-60
2022/06/14 09:15:36;;;;;;;;;9.25;8.00;;;;;25.29;41.86;99262.31;5019046;28;46384;-59
2022/06/14 09:18:08;;;;;;;;;8.20;6.40;;;;;25.35;41.48;99261.69;5020016;28;45453;-59
2022/06/14 09:20:40;;;;;;;;;4.80;4.80;;;;;25.40;41.91;99261.22;5019205;28;45421;-59
2022/06/14 09:23:37;;;;;;;;;2.00;2.00;;;;;25.44;41.82;99259.09;5019536;28;45634;-60
2022/06/14 09:26:03;;;;;;;;;8.75;7.00;;;;;25.48;41.36;99257.75;4993630;28;45713;-59
2022/06/14 09:28:43;;;;;;;;;6.25;6.25;;;;;25.53;41.57;99248.22;5019137;28;45498;-59
2022/06/14 09:31:16;;;;;;;;;7.00;7.00;;;;;25.58;41.63;99247.75;5019570;28;45503;-59
2022/06/14 09:34:20;;;;;;;;;5.00;5.00;;;;;25.65;41.25;99241.59;5019377;28;45273;-59
2022/06/14 09:37:24;;;;;;;;;5.00;4.25;;;;;25.71;41.28;99240.13;5019931;28;45413;-59
2022/06/14 09:40:11;;;;;;;;;5.60;5.60;;;;;25.77;41.40;99234.13;5019121;28;45536;-59
2022/06/14 09:42:47;;;;;;;;;5.40;5.40;;;;;25.82;41.08;99228.25;5019698;28;45477;-60
2022/06/14 09:45:36;;;;;;;;;7.00;5.00;;;;;25.84;41.24;99231.63;5019303;28;45546;-59
2022/06/14 09:48:16;;;;;;;;;6.00;6.00;;;;;25.89;40.97;99222.06;5019666;28;45424;-59
2022/06/14 09:50:56;;;;;;;;;5.80;5.00;;;;;25.95;41.02;99215.22;5014728;28;45529;-59
2022/06/14 09:53:53;;;;;;;;;6.40;5.40;;;;;26.03;41.38;99218.81;5016543;28;45506;-59
2022/06/14 09:56:31;;;;;;;;;7.50;7.50;;;;;26.13;41.10;99207.06;5016429;28;45690;-59
2022/06/14 09:59:18;;;;;;;;;6.40;6.40;;;;;26.22;40.83;99203.41;5015376;28;46431;-58
2022/06/14 10:01:58;;;;;;;;;9.20;7.80;;;;;26.29;40.55;99199.94;5014969;28;45443;-58
2022/06/14 10:04:30;;;;;;;;;6.60;6.60;;;;;26.36;40.96;99198.28;5015446;28;45423;-58
2022/06/14 10:06:58;;;;;;;;;11.75;9.25;;;;;26.40;41.06;99196.13;5014778;28;45499;-59
2022/06/14 10:09:24;;;;;;;;;13.75;11.75;;;;;26.43;40.75;99190.38;5015384;28;45581;-59
2022/06/14 10:12:38;;;;;;;;;8.00;8.00;;;;;26.49;40.50;99188.88;5015284;28;45522;-58
2022/06/14 10:15:32;;;;;;;;;9.20;7.60;;;;;26.57;40.06;99191.63;4982243;28;45490;-59
2022/06/14 10:18:23;;;;;;;;;6.75;6.75;;;;;26.60;40.01;99189.47;5015877;28;45432;-59
2022/06/14 10:21:14;;;;;;;;;8.40;7.60;;;;;26.66;40.15;99191.50;5013469;28;46782;-59
2022/06/14 10:24:05;;;;;;;;;6.00;6.00;;;;;26.68;39.90;99192.19;5015895;28;45424;-59
2022/06/14 10:29:36;;;;;;;;;10.00;8.00;;;;;26.79;40.01;99184.81;5000429;28;45521;-59
2022/06/14 10:32:34;;;;;;;;;5.20;5.20;;;;;26.83;39.78;99180.75;5015610;28;45379;-59
2022/06/14 10:35:29;;;;;;;;;9.80;9.80;;;;;26.85;39.71;99185.00;5015533;28;45473;-59
2022/06/14 10:38:06;;;;;;;;;9.00;7.80;;;;;26.86;39.44;99184.00;5015570;28;45459;-59
2022/06/14 10:41:04;;;;;;;;;9.25;9.25;;;;;26.87;39.76;99174.00;5015376;28;45530;-59
2022/06/14 10:44:07;;;;;;;;;8.80;7.60;;;;;26.92;39.80;99172.53;4999116;28;45699;-59
2022/06/14 10:46:43;;;;;;;;;8.40;8.40;;;;;27.04;39.40;99178.50;5015260;28;45445;-59
2022/06/14 10:49:51;;;;;;;;;8.25;7.25;;;;;27.13;39.13;99182.94;5014654;28;45474;-58
2022/06/14 10:52:27;;;;;;;;;8.25;8.25;;;;;27.20;39.68;99173.13;4993891;28;45476;-60
2022/06/14 10:55:17;;;;;;;;;10.25;10.25;;;;;27.21;38.67;99173.97;5014786;28;45480;-58
2022/06/14 10:58:27;;;;;;;;;7.20;6.00;;;;;27.21;38.29;99182.09;4996959;28;45343;-58
2022/06/14 11:01:14;;;;;;;;;8.00;7.25;;;;;27.18;38.33;99174.31;4994744;28;45524;-59
2022/06/14 11:04:02;;;;;;;;;5.00;4.00;;;;;27.18;38.90;99171.59;5013935;28;45482;-59
2022/06/14 11:06:49;;;;;;;;;8.75;7.50;;;;;27.21;39.11;99180.25;5014993;28;46280;-58
2022/06/14 11:09:52;;;;;;;;;6.80;6.20;;;;;27.21;38.97;99176.69;5014819;28;45531;-59
2022/06/14 11:12:41;;;;;;;;;8.80;8.20;;;;;27.24;38.73;99171.78;5015436;28;45380;-59
2022/06/14 11:15:19;;;;;;;;;7.25;7.25;;;;;27.25;39.10;99170.78;5014525;28;45581;-58
2022/06/14 11:17:50;;;;;;;;;9.20;8.80;;;;;27.29;38.83;99172.16;5014017;28;46548;-59
2022/06/14 11:20:32;;;;;;;;;7.40;7.20;;;;;27.33;39.12;99165.34;5014054;28;45446;-59
2022/06/14 11:23:11;;;;;;;;;8.40;6.80;;;;;27.36;38.92;99164.19;5015285;28;45372;-59
2022/06/14 11:25:51;;;;;;;;;6.50;6.50;;;;;27.39;39.12;99161.16;5010378;28;45533;-59
2022/06/14 11:28:42;;;;;;;;;7.00;6.20;;;;;27.47;38.97;99147.63;5015129;28;45461;-59
2022/06/14 11:31:17;;;;;;;;;9.40;8.80;;;;;27.55;38.70;99144.91;5014580;28;45476;-59
2022/06/14 11:33:51;;;;;;;;;7.50;7.00;;;;;27.65;38.71;99153.72;5015068;28;45620;-58
2022/06/14 11:36:44;;;;;;;;;8.50;7.75;;;;;27.72;38.87;99143.94;5014151;28;45476;-59
2022/06/14 11:39:26;;;;;;;;;9.50;8.75;;;;;27.81;38.57;99138.53;5014732;28;46799;-59
2022/06/14 11:41:53;;;;;;;;;9.00;7.20;;;;;27.89;38.50;99127.66;5014735;28;45513;-60
2022/06/14 11:44:54;;;;;;;;;9.00;9.00;;;;;27.96;38.52;99124.09;5014965;28;45331;-60
2022/06/14 11:47:44;;;;;;;;;7.75;7.00;;;;;28.10;38.63;99127.97;5014479;28;45506;-59
2022/06/14 11:50:21;;;;;;;;;7.00;6.75;;;;;28.17;38.61;99123.53;5013248;28;46456;-59
2022/06/14 11:53:14;;;;;;;;;6.00;6.00;;;;;28.20;39.05;99122.38;5014132;28;45417;-59
2022/06/14 11:55:59;;;;;;;;;8.40;6.80;;;;;28.21;38.55;99115.94;5012998;28;45403;-59
2022/06/14 11:58:56;;;;;;;;;10.00;10.00;;;;;28.24;38.05;99115.59;5014105;28;45454;-59
2022/06/14 12:01:34;;;;;;;;;5.50;5.50;;;;;28.27;38.32;99109.81;5014170;28;47479;-59
2022/06/14 12:04:33;;;;;;;;;6.80;6.20;;;;;28.36;38.58;99112.31;5013528;28;45475;-59
2022/06/14 12:07:03;;;;;;;;;8.00;8.00;;;;;28.46;38.60;99104.00;5014366;28;45494;-59
2022/06/14 12:09:52;;;;;;;;;9.00;9.00;;;;;28.56;38.26;99103.75;5014170;28;45532;-59
2022/06/14 12:12:27;;;;;;;;;6.75;6.75;;;;;28.59;38.77;99096.13;5002460;28;46225;-59
2022/06/14 12:14:58;;;;;;;;;6.00;6.00;;;;;28.64;38.53;99092.88;5013752;28;45412;-60
2022/06/14 12:17:33;;;;;;;;;8.00;6.00;;;;;28.70;38.38;99086.72;5013856;28;45426;-59
2022/06/14 12:20:06;;;;;;;;;7.00;6.50;;;;;28.80;38.81;99085.53;5013425;28;45489;-59
2022/06/14 12:22:50;;;;;;;;;6.25;6.00;;;;;28.93;38.55;99087.66;5013529;28;45524;-59
2022/06/14 12:28:28;;;;;;;;;6.60;5.40;;;;;29.23;38.18;99075.06;5014048;28;45718;-59
2022/06/14 12:31:24;;;;;;;;;6.00;4.50;;;;;29.32;37.26;99075.84;5013933;28;45392;-59
2022/06/14 12:34:13;;;;;;;;;6.00;5.50;;;;;29.37;37.57;99087.00;5002602;28;45453;-59
2022/06/14 12:36:44;;;;;;;;;6.20;6.20;;;;;29.39;37.54;99071.38;5013393;28;45378;-59
2022/06/14 12:39:17;;;;;;;;;8.00;7.00;;;;;29.42;37.28;99082.75;5014079;28;45368;-59
2022/06/14 12:42:19;;;;;;;;;5.00;5.00;;;;;29.44;36.95;99071.69;4996556;28;45459;-59
2022/06/14 12:44:55;;;;;;;;;6.25;6.25;;;;;29.45;37.08;99078.81;5014074;28;46215;-60